sensor_id;sensor_type;location;lat;lon;timestamp;pressure;altitude;pressure_sealevel;temperature
41593;BMP180;28026;48.562;14.440;2023-03-01T00:00:52;94320.00;;;5.00
41593;BMP180;28026;48.562;14.440;2023-03-01T00:03:23;94316.00;;;5.00
41593;BMP180;28026;48.562;14.440;2023-03-01T00:05:54;94313.00;;;5.00
41593;BMP180;28026;48.562;14.440;2023-03-01T00:08:26;94316.00;;;5.00
41593;BMP180;28026;48.562;14.440;2023-03-01T00:11:12;94314.00;;;5.00
41593;BMP180;28026;48.562;14.440;2023-03-01T00:13:52;94307.00;;;4.90
41593;BMP180;28026;48.562;14.440;2023-03-01T00:16:31;94300.00;;;4.90
41593;BMP180;28026;48.562;14.440;2023-03-01T00:19:20;94295.00;;;4.90
41593;BMP180;28026;48.562;14.440;2023-03-01T00:21:52;94296.00;;;4.90
41593;BMP180;28026;48.562;14.440;2023-03-01T00:24:23;94298.00;;;4.90
41593;BMP180;28026;48.562;14.440;2023-03-01T00:26:55;94302.00;;;4.80
41593;BMP180;28026;48.562;14.440;2023-03-01T00:29:26;94300.00;;;4.80
41593;BMP180;28026;48.562;14.440;2023-03-01T00:31:57;94299.00;;;4.90
41593;BMP180;28026;48.562;14.440;2023-03-01T00:34:28;94291.00;;;4.90
41593;BMP180;28026;48.562;14.440;2023-03-01T00:36:59;94298.00;;;5.00
41593;BMP180;28026;48.562;14.440;2023-03-01T00:39:35;94297.00;;;5.00
41593;BMP180;28026;48.562;14.440;2023-03-01T00:42:06;94299.00;;;5.00
41593;BMP180;28026;48.562;14.440;2023-03-01T00:44:37;94292.00;;;5.00
41593;BMP180;28026;48.562;14.440;2023-03-01T00:47:08;94284.00;;;4.90
41593;BMP180;28026;48.562;14.440;2023-03-01T00:49:40;94285.00;;;4.90
41593;BMP180;28026;48.562;14.440;2023-03-01T00:52:10;94283.00;;;4.90
41593;BMP180;28026;48.562;14.440;2023-03-01T00:54:41;94270.00;;;4.90
41593;BMP180;28026;48.562;14.440;2023-03-01T00:57:12;94271.00;;;4.90
41593;BMP180;28026;48.562;14.440;2023-03-01T00:59:43;94270.00;;;4.90
41593;BMP180;28026;48.562;14.440;2023-03-01T01:02:14;94276.00;;;4.90
41593;BMP180;28026;48.562;14.440;2023-03-01T01:04:46;94273.00;;;4.90
41593;BMP180;28026;48.562;14.440;2023-03-01T01:07:18;94277.00;;;4.90
41593;BMP180;28026;48.562;14.440;2023-03-01T01:09:50;94261.00;;;4.90
41593;BMP180;28026;48.562;14.440;2023-03-01T01:12:21;94270.00;;;4.90
41593;BMP180;28026;48.562;14.440;2023-03-01T01:14:53;94261.00;;;4.80
41593;BMP180;28026;48.562;14.440;2023-03-01T01:17:23;94269.00;;;4.80
41593;BMP180;28026;48.562;14.440;2023-03-01T01:19:54;94262.00;;;4.80
41593;BMP180;28026;48.562;14.440;2023-03-01T01:22:25;94265.00;;;4.80
41593;BMP180;28026;48.562;14.440;2023-03-01T01:24:56;94261.00;;;4.80
41593;BMP180;28026;48.562;14.440;2023-03-01T01:27:27;94263.00;;;4.80
41593;BMP180;28026;48.562;14.440;2023-03-01T01:29:58;94263.00;;;4.80
41593;BMP180;28026;48.562;14.440;2023-03-01T01:32:29;94241.00;;;4.80
41593;BMP180;28026;48.562;14.440;2023-03-01T01:35:00;94257.00;;;4.80
41593;BMP180;28026;48.562;14.440;2023-03-01T01:37:31;94254.00;;;4.80
41593;BMP180;28026;48.562;14.440;2023-03-01T01:40:03;94257.00;;;4.70
41593;BMP180;28026;48.562;14.440;2023-03-01T01:42:34;94257.00;;;4.70
41593;BMP180;28026;48.562;14.440;2023-03-01T01:45:34;94239.00;;;4.60
41593;BMP180;28026;48.562;14.440;2023-03-01T01:48:18;94243.00;;;4.60
41593;BMP180;28026;48.562;14.440;2023-03-01T01:50:59;94233.00;;;4.50
41593;BMP180;28026;48.562;14.440;2023-03-01T01:53:31;94231.00;;;4.40
41593;BMP180;28026;48.562;14.440;2023-03-01T01:56:06;94221.00;;;4.40
41593;BMP180;28026;48.562;14.440;2023-03-01T01:58:42;94225.00;;;4.40
41593;BMP180;28026;48.562;14.440;2023-03-01T02:01:14;94226.00;;;4.40
41593;BMP180;28026;48.562;14.440;2023-03-01T02:03:47;94224.00;;;4.40
41593;BMP180;28026;48.562;14.440;2023-03-01T02:06:27;94222.00;;;4.30
41593;BMP180;28026;48.562;14.440;2023-03-01T02:09:08;94220.00;;;4.20
41593;BMP180;28026;48.562;14.440;2023-03-01T02:11:44;94215.00;;;4.30
41593;BMP180;28026;48.562;14.440;2023-03-01T02:14:16;94210.00;;;4.30
41593;BMP180;28026;48.562;14.440;2023-03-01T02:16:47;94210.00;;;4.30
41593;BMP180;28026;48.562;14.440;2023-03-01T02:22:24;94214.00;;;4.20
41593;BMP180;28026;48.562;14.440;2023-03-01T02:25:21;94217.00;;;4.20
41593;BMP180;28026;48.562;14.440;2023-03-01T02:28:16;94215.00;;;4.20
41593;BMP180;28026;48.562;14.440;2023-03-01T02:30:49;94220.00;;;4.20
41593;BMP180;28026;48.562;14.440;2023-03-01T02:33:41;94218.00;;;4.10
41593;BMP180;28026;48.562;14.440;2023-03-01T02:36:22;94225.00;;;4.10
41593;BMP180;28026;48.562;14.440;2023-03-01T02:39:00;94219.00;;;4.10
41593;BMP180;28026;48.562;14.440;2023-03-01T02:41:37;94219.00;;;4.10
41593;BMP180;28026;48.562;14.440;2023-03-01T02:44:09;94226.00;;;4.00
41593;BMP180;28026;48.562;14.440;2023-03-01T02:46:47;94223.00;;;4.00
41593;BMP180;28026;48.562;14.440;2023-03-01T02:49:30;94225.00;;;4.00
41593;BMP180;28026;48.562;14.440;2023-03-01T02:52:21;94218.00;;;4.00
41593;BMP180;28026;48.562;14.440;2023-03-01T02:55:13;94211.00;;;3.90
41593;BMP180;28026;48.562;14.440;2023-03-01T02:57:48;94200.00;;;3.80
41593;BMP180;28026;48.562;14.440;2023-03-01T03:00:40;94208.00;;;3.80
41593;BMP180;28026;48.562;14.440;2023-03-01T03:03:19;94197.00;;;3.70
41593;BMP180;28026;48.562;14.440;2023-03-01T03:05:51;94202.00;;;3.70
41593;BMP180;28026;48.562;14.440;2023-03-01T03:08:21;94181.00;;;3.70
41593;BMP180;28026;48.562;14.440;2023-03-01T03:10:54;94194.00;;;3.60
41593;BMP180;28026;48.562;14.440;2023-03-01T03:13:25;94206.00;;;3.60
41593;BMP180;28026;48.562;14.440;2023-03-01T03:15:58;94197.00;;;3.60
41593;BMP180;28026;48.562;14.440;2023-03-01T03:18:29;94192.00;;;3.50
41593;BMP180;28026;48.562;14.440;2023-03-01T03:21:00;94192.00;;;3.50
41593;BMP180;28026;48.562;14.440;2023-03-01T03:23:31;94198.00;;;3.50
41593;BMP180;28026;48.562;14.440;2023-03-01T03:26:04;94192.00;;;3.50
41593;BMP180;28026;48.562;14.440;2023-03-01T03:28:36;94188.00;;;3.60
41593;BMP180;28026;48.562;14.440;2023-03-01T03:31:10;94196.00;;;3.60
41593;BMP180;28026;48.562;14.440;2023-03-01T03:33:41;94192.00;;;3.50
41593;BMP180;28026;48.562;14.440;2023-03-01T03:36:18;94188.00;;;3.50
41593;BMP180;28026;48.562;14.440;2023-03-01T03:38:50;94186.00;;;3.60
41593;BMP180;28026;48.562;14.440;2023-03-01T03:41:21;94188.00;;;3.50
41593;BMP180;28026;48.562;14.440;2023-03-01T03:43:52;94186.00;;;3.60
41593;BMP180;28026;48.562;14.440;2023-03-01T03:46:23;94179.00;;;3.50
41593;BMP180;28026;48.562;14.440;2023-03-01T03:48:54;94184.00;;;3.50
41593;BMP180;28026;48.562;14.440;2023-03-01T03:51:25;94172.00;;;3.50
41593;BMP180;28026;48.562;14.440;2023-03-01T03:53:56;94188.00;;;3.50
41593;BMP180;28026;48.562;14.440;2023-03-01T03:56:27;94182.00;;;3.50
41593;BMP180;28026;48.562;14.440;2023-03-01T03:58:57;94177.00;;;3.50
41593;BMP180;28026;48.562;14.440;2023-03-01T04:01:28;94178.00;;;3.50
41593;BMP180;28026;48.562;14.440;2023-03-01T04:03:59;94160.00;;;3.50
41593;BMP180;28026;48.562;14.440;2023-03-01T04:06:34;94162.00;;;3.40
41593;BMP180;28026;48.562;14.440;2023-03-01T04:09:05;94163.00;;;3.40
41593;BMP180;28026;48.562;14.440;2023-03-01T04:11:36;94155.00;;;3.40
41593;BMP180;28026;48.562;14.440;2023-03-01T04:14:09;94155.00;;;3.40
41593;BMP180;28026;48.562;14.440;2023-03-01T04:16:40;94164.00;;;3.40
41593;BMP180;28026;48.562;14.440;2023-03-01T04:19:11;94160.00;;;3.40
41593;BMP180;28026;48.562;14.440;2023-03-01T04:21:42;94163.00;;;3.40
41593;BMP180;28026;48.562;14.440;2023-03-01T04:24:13;94153.00;;;3.30
41593;BMP180;28026;48.562;14.440;2023-03-01T04:26:44;94148.00;;;3.40
41593;BMP180;28026;48.562;14.440;2023-03-01T04:29:15;94160.00;;;3.40
41593;BMP180;28026;48.562;14.440;2023-03-01T04:31:47;94161.00;;;3.40
41593;BMP180;28026;48.562;14.440;2023-03-01T04:34:19;94160.00;;;3.40
41593;BMP180;28026;48.562;14.440;2023-03-01T04:36:50;94156.00;;;3.40
41593;BMP180;28026;48.562;14.440;2023-03-01T04:39:21;94158.00;;;3.40
41593;BMP180;28026;48.562;14.440;2023-03-01T04:41:52;94151.00;;;3.40
41593;BMP180;28026;48.562;14.440;2023-03-01T04:44:23;94155.00;;;3.40
41593;BMP180;28026;48.562;14.440;2023-03-01T04:46:54;94159.00;;;3.40
41593;BMP180;28026;48.562;14.440;2023-03-01T04:49:25;94150.00;;;3.40
41593;BMP180;28026;48.562;14.440;2023-03-01T04:51:56;94157.00;;;3.40
41593;BMP180;28026;48.562;14.440;2023-03-01T04:54:31;94157.00;;;3.40
41593;BMP180;28026;48.562;14.440;2023-03-01T04:57:03;94158.00;;;3.40
41593;BMP180;28026;48.562;14.440;2023-03-01T04:59:34;94150.00;;;3.40
41593;BMP180;28026;48.562;14.440;2023-03-01T05:02:06;94146.00;;;3.40
41593;BMP180;28026;48.562;14.440;2023-03-01T05:04:37;94153.00;;;3.40
41593;BMP180;28026;48.562;14.440;2023-03-01T05:07:08;94157.00;;;3.40
41593;BMP180;28026;48.562;14.440;2023-03-01T05:09:39;94142.00;;;3.40
41593;BMP180;28026;48.562;14.440;2023-03-01T05:12:10;94157.00;;;3.30
41593;BMP180;28026;48.562;14.440;2023-03-01T05:14:41;94153.00;;;3.30
41593;BMP180;28026;48.562;14.440;2023-03-01T05:17:12;94149.00;;;3.30
41593;BMP180;28026;48.562;14.440;2023-03-01T05:19:43;94150.00;;;3.30
41593;BMP180;28026;48.562;14.440;2023-03-01T05:22:14;94147.00;;;3.30
41593;BMP180;28026;48.562;14.440;2023-03-01T05:24:45;94151.00;;;3.20
41593;BMP180;28026;48.562;14.440;2023-03-01T05:27:17;94146.00;;;3.20
41593;BMP180;28026;48.562;14.440;2023-03-01T05:29:48;94144.00;;;3.20
41593;BMP180;28026;48.562;14.440;2023-03-01T05:32:19;94145.00;;;3.20
41593;BMP180;28026;48.562;14.440;2023-03-01T05:34:49;94146.00;;;3.20
41593;BMP180;28026;48.562;14.440;2023-03-01T05:37:22;94142.00;;;3.10
41593;BMP180;28026;48.562;14.440;2023-03-01T05:39:53;94145.00;;;3.10
41593;BMP180;28026;48.562;14.440;2023-03-01T05:42:24;94147.00;;;3.10
41593;BMP180;28026;48.562;14.440;2023-03-01T05:44:54;94145.00;;;3.10
41593;BMP180;28026;48.562;14.440;2023-03-01T05:47:25;94136.00;;;3.10
41593;BMP180;28026;48.562;14.440;2023-03-01T05:49:56;94143.00;;;3.10
41593;BMP180;28026;48.562;14.440;2023-03-01T05:52:27;94147.00;;;3.10
41593;BMP180;28026;48.562;14.440;2023-03-01T05:54:58;94148.00;;;3.10
41593;BMP180;28026;48.562;14.440;2023-03-01T05:57:29;94152.00;;;3.10
41593;BMP180;28026;48.562;14.440;2023-03-01T06:00:00;94156.00;;;3.10
41593;BMP180;28026;48.562;14.440;2023-03-01T06:02:31;94159.00;;;3.10
41593;BMP180;28026;48.562;14.440;2023-03-01T06:05:02;94157.00;;;3.10
41593;BMP180;28026;48.562;14.440;2023-03-01T06:07:33;94156.00;;;3.10
41593;BMP180;28026;48.562;14.440;2023-03-01T06:10:08;94157.00;;;3.20
41593;BMP180;28026;48.562;14.440;2023-03-01T06:12:42;94161.00;;;3.20
41593;BMP180;28026;48.562;14.440;2023-03-01T06:15:16;94155.00;;;3.20
41593;BMP180;28026;48.562;14.440;2023-03-01T06:17:47;94168.00;;;3.20
41593;BMP180;28026;48.562;14.440;2023-03-01T06:20:22;94157.00;;;3.20
41593;BMP180;28026;48.562;14.440;2023-03-01T06:22:54;94170.00;;;3.20
41593;BMP180;28026;48.562;14.440;2023-03-01T06:25:27;94167.00;;;3.30
41593;BMP180;28026;48.562;14.440;2023-03-01T06:27:58;94180.00;;;3.30
41593;BMP180;28026;48.562;14.440;2023-03-01T06:30:29;94184.00;;;3.40
41593;BMP180;28026;48.562;14.440;2023-03-01T06:33:00;94188.00;;;3.50
41593;BMP180;28026;48.562;14.440;2023-03-01T06:35:32;94194.00;;;3.60
41593;BMP180;28026;48.562;14.440;2023-03-01T06:38:06;94201.00;;;3.70
41593;BMP180;28026;48.562;14.440;2023-03-01T06:40:37;94202.00;;;3.80
41593;BMP180;28026;48.562;14.440;2023-03-01T06:43:08;94196.00;;;3.90
41593;BMP180;28026;48.562;14.440;2023-03-01T06:45:38;94188.00;;;4.00
41593;BMP180;28026;48.562;14.440;2023-03-01T06:48:09;94199.00;;;4.10
41593;BMP180;28026;48.562;14.440;2023-03-01T06:50:40;94201.00;;;4.30
41593;BMP180;28026;48.562;14.440;2023-03-01T06:53:11;94205.00;;;4.40
41593;BMP180;28026;48.562;14.440;2023-03-01T06:55:42;94204.00;;;4.50
41593;BMP180;28026;48.562;14.440;2023-03-01T06:58:13;94201.00;;;4.70
41593;BMP180;28026;48.562;14.440;2023-03-01T07:00:44;94195.00;;;4.80
41593;BMP180;28026;48.562;14.440;2023-03-01T07:03:15;94201.00;;;4.90
41593;BMP180;28026;48.562;14.440;2023-03-01T07:05:48;94205.00;;;5.00
41593;BMP180;28026;48.562;14.440;2023-03-01T07:08:22;94197.00;;;5.20
41593;BMP180;28026;48.562;14.440;2023-03-01T07:10:58;94208.00;;;5.30
41593;BMP180;28026;48.562;14.440;2023-03-01T07:13:29;94208.00;;;5.50
41593;BMP180;28026;48.562;14.440;2023-03-01T07:16:00;94201.00;;;5.70
41593;BMP180;28026;48.562;14.440;2023-03-01T07:18:31;94207.00;;;5.80
41593;BMP180;28026;48.562;14.440;2023-03-01T07:21:07;94200.00;;;6.00
41593;BMP180;28026;48.562;14.440;2023-03-01T07:23:39;94201.00;;;6.10
41593;BMP180;28026;48.562;14.440;2023-03-01T07:26:11;94204.00;;;6.20
41593;BMP180;28026;48.562;14.440;2023-03-01T07:28:41;94192.00;;;6.30
41593;BMP180;28026;48.562;14.440;2023-03-01T07:31:12;94192.00;;;6.40
41593;BMP180;28026;48.562;14.440;2023-03-01T07:33:43;94191.00;;;6.50
41593;BMP180;28026;48.562;14.440;2023-03-01T07:36:14;94192.00;;;6.60
41593;BMP180;28026;48.562;14.440;2023-03-01T07:38:45;94190.00;;;6.80
41593;BMP180;28026;48.562;14.440;2023-03-01T07:41:16;94194.00;;;6.90
41593;BMP180;28026;48.562;14.440;2023-03-01T07:43:47;94206.00;;;7.10
41593;BMP180;28026;48.562;14.440;2023-03-01T07:46:18;94204.00;;;7.30
41593;BMP180;28026;48.562;14.440;2023-03-01T07:48:49;94196.00;;;7.30
41593;BMP180;28026;48.562;14.440;2023-03-01T07:51:20;94190.00;;;7.40
41593;BMP180;28026;48.562;14.440;2023-03-01T07:53:51;94194.00;;;7.50
41593;BMP180;28026;48.562;14.440;2023-03-01T07:56:22;94190.00;;;7.60
41593;BMP180;28026;48.562;14.440;2023-03-01T07:58:53;94201.00;;;7.70
41593;BMP180;28026;48.562;14.440;2023-03-01T08:01:23;94196.00;;;7.80
41593;BMP180;28026;48.562;14.440;2023-03-01T08:03:54;94198.00;;;7.90
41593;BMP180;28026;48.562;14.440;2023-03-01T08:06:25;94197.00;;;8.00
41593;BMP180;28026;48.562;14.440;2023-03-01T08:08:56;94198.00;;;8.20
41593;BMP180;28026;48.562;14.440;2023-03-01T08:11:28;94201.00;;;8.30
41593;BMP180;28026;48.562;14.440;2023-03-01T08:13:59;94191.00;;;8.40
41593;BMP180;28026;48.562;14.440;2023-03-01T08:16:30;94186.00;;;8.50
41593;BMP180;28026;48.562;14.440;2023-03-01T08:19:10;94189.00;;;8.60
41593;BMP180;28026;48.562;14.440;2023-03-01T08:21:42;94182.00;;;8.60
41593;BMP180;28026;48.562;14.440;2023-03-01T08:24:12;94173.00;;;8.70
41593;BMP180;28026;48.562;14.440;2023-03-01T08:26:44;94164.00;;;8.90
41593;BMP180;28026;48.562;14.440;2023-03-01T08:29:15;94169.00;;;9.00
41593;BMP180;28026;48.562;14.440;2023-03-01T08:31:46;94171.00;;;9.10
41593;BMP180;28026;48.562;14.440;2023-03-01T08:34:18;94165.00;;;9.30
41593;BMP180;28026;48.562;14.440;2023-03-01T08:36:49;94177.00;;;9.40
41593;BMP180;28026;48.562;14.440;2023-03-01T08:39:22;94165.00;;;9.60
41593;BMP180;28026;48.562;14.440;2023-03-01T08:41:53;94166.00;;;9.80
41593;BMP180;28026;48.562;14.440;2023-03-01T08:44:24;94169.00;;;10.00
41593;BMP180;28026;48.562;14.440;2023-03-01T08:46:55;94166.00;;;10.20
41593;BMP180;28026;48.562;14.440;2023-03-01T08:49:26;94162.00;;;10.40
41593;BMP180;28026;48.562;14.440;2023-03-01T08:51:57;94158.00;;;10.60
41593;BMP180;28026;48.562;14.440;2023-03-01T08:54:27;94160.00;;;10.80
41593;BMP180;28026;48.562;14.440;2023-03-01T08:57:02;94150.00;;;11.00
41593;BMP180;28026;48.562;14.440;2023-03-01T08:59:33;94149.00;;;11.20
41593;BMP180;28026;48.562;14.440;2023-03-01T09:02:17;94149.00;;;11.50
41593;BMP180;28026;48.562;14.440;2023-03-01T09:04:49;94145.00;;;11.70
41593;BMP180;28026;48.562;14.440;2023-03-01T09:07:20;94152.00;;;11.90
41593;BMP180;28026;48.562;14.440;2023-03-01T09:09:51;94152.00;;;12.10
41593;BMP180;28026;48.562;14.440;2023-03-01T09:12:23;94142.00;;;12.30
41593;BMP180;28026;48.562;14.440;2023-03-01T09:14:55;94141.00;;;12.50
41593;BMP180;28026;48.562;14.440;2023-03-01T09:17:26;94138.00;;;12.70
41593;BMP180;28026;48.562;14.440;2023-03-01T09:19:57;94140.00;;;12.80
41593;BMP180;28026;48.562;14.440;2023-03-01T09:22:28;94141.00;;;12.80
41593;BMP180;28026;48.562;14.440;2023-03-01T09:24:58;94130.00;;;12.80
41593;BMP180;28026;48.562;14.440;2023-03-01T09:27:30;94132.00;;;13.00
41593;BMP180;28026;48.562;14.440;2023-03-01T09:30:01;94135.00;;;13.10
41593;BMP180;28026;48.562;14.440;2023-03-01T09:32:32;94127.00;;;13.20
41593;BMP180;28026;48.562;14.440;2023-03-01T09:35:04;94125.00;;;13.40
41593;BMP180;28026;48.562;14.440;2023-03-01T09:37:36;94112.00;;;13.50
41593;BMP180;28026;48.562;14.440;2023-03-01T09:40:15;94112.00;;;13.60
41593;BMP180;28026;48.562;14.440;2023-03-01T09:43:01;94103.00;;;13.80
41593;BMP180;28026;48.562;14.440;2023-03-01T09:45:43;94112.00;;;13.80
41593;BMP180;28026;48.562;14.440;2023-03-01T09:48:21;94098.00;;;14.00
41593;BMP180;28026;48.562;14.440;2023-03-01T09:50:56;94100.00;;;14.20
41593;BMP180;28026;48.562;14.440;2023-03-01T09:53:33;94108.00;;;14.40
41593;BMP180;28026;48.562;14.440;2023-03-01T09:56:41;94102.00;;;14.50
41593;BMP180;28026;48.562;14.440;2023-03-01T10:00:03;94101.00;;;14.80
41593;BMP180;28026;48.562;14.440;2023-03-01T10:03:34;94094.00;;;14.90
41593;BMP180;28026;48.562;14.440;2023-03-01T10:06:22;94100.00;;;15.00
41593;BMP180;28026;48.562;14.440;2023-03-01T10:09:00;94093.00;;;15.10
41593;BMP180;28026;48.562;14.440;2023-03-01T10:11:42;94087.00;;;15.10
41593;BMP180;28026;48.562;14.440;2023-03-01T10:14:58;94081.00;;;15.00
41593;BMP180;28026;48.562;14.440;2023-03-01T10:20:30;94079.00;;;15.10
41593;BMP180;28026;48.562;14.440;2023-03-01T10:23:13;94082.00;;;15.20
41593;BMP180;28026;48.562;14.440;2023-03-01T10:29:12;94079.00;;;15.50
41593;BMP180;28026;48.562;14.440;2023-03-01T10:31:46;94080.00;;;15.60
41593;BMP180;28026;48.562;14.440;2023-03-01T10:34:28;94071.00;;;15.70
41593;BMP180;28026;48.562;14.440;2023-03-01T10:37:19;94076.00;;;15.80
41593;BMP180;28026;48.562;14.440;2023-03-01T10:42:48;94058.00;;;16.00
41593;BMP180;28026;48.562;14.440;2023-03-01T10:45:37;94060.00;;;16.00
41593;BMP180;28026;48.562;14.440;2023-03-01T10:48:26;94039.00;;;16.00
41593;BMP180;28026;48.562;14.440;2023-03-01T10:53:41;94036.00;;;16.20
41593;BMP180;28026;48.562;14.440;2023-03-01T10:56:14;94034.00;;;16.30
41593;BMP180;28026;48.562;14.440;2023-03-01T10:59:04;94030.00;;;16.30
41593;BMP180;28026;48.562;14.440;2023-03-01T11:01:36;94023.00;;;16.40
41593;BMP180;28026;48.562;14.440;2023-03-01T11:06:42;94009.00;;;16.30
41593;BMP180;28026;48.562;14.440;2023-03-01T11:09:21;94018.00;;;16.30
41593;BMP180;28026;48.562;14.440;2023-03-01T11:12:00;94012.00;;;16.40
41593;BMP180;28026;48.562;14.440;2023-03-01T11:14:38;94007.00;;;16.50
41593;BMP180;28026;48.562;14.440;2023-03-01T11:17:27;94010.00;;;16.60
41593;BMP180;28026;48.562;14.440;2023-03-01T11:20:24;94010.00;;;16.80
41593;BMP180;28026;48.562;14.440;2023-03-01T11:23:12;94005.00;;;17.00
41593;BMP180;28026;48.562;14.440;2023-03-01T11:26:01;94000.00;;;17.00
41593;BMP180;28026;48.562;14.440;2023-03-01T11:28:39;93990.00;;;17.10
41593;BMP180;28026;48.562;14.440;2023-03-01T11:31:12;93986.00;;;17.20
41593;BMP180;28026;48.562;14.440;2023-03-01T11:34:11;93989.00;;;17.20
41593;BMP180;28026;48.562;14.440;2023-03-01T11:36:52;93980.00;;;17.40
41593;BMP180;28026;48.562;14.440;2023-03-01T11:39:58;93979.00;;;17.50
41593;BMP180;28026;48.562;14.440;2023-03-01T11:42:50;93979.00;;;17.60
41593;BMP180;28026;48.562;14.440;2023-03-01T12:05:18;93959.00;;;18.90
41593;BMP180;28026;48.562;14.440;2023-03-01T12:14:19;93957.00;;;19.50
41593;BMP180;28026;48.562;14.440;2023-03-01T12:24:32;93959.00;;;19.80
41593;BMP180;28026;48.562;14.440;2023-03-01T12:40:46;93955.00;;;19.70
41593;BMP180;28026;48.562;14.440;2023-03-01T12:49:56;93955.00;;;19.90
41593;BMP180;28026;48.562;14.440;2023-03-01T12:52:42;93953.00;;;19.80
41593;BMP180;28026;48.562;14.440;2023-03-01T12:55:33;93952.00;;;19.90
41593;BMP180;28026;48.562;14.440;2023-03-01T12:58:33;93953.00;;;19.80
41593;BMP180;28026;48.562;14.440;2023-03-01T13:08:05;93946.00;;;19.90
41593;BMP180;28026;48.562;14.440;2023-03-01T13:11:04;93943.00;;;19.90
41593;BMP180;28026;48.562;14.440;2023-03-01T13:13:37;93938.00;;;19.80
41593;BMP180;28026;48.562;14.440;2023-03-01T13:19:20;93939.00;;;19.80
41593;BMP180;28026;48.562;14.440;2023-03-01T13:21:56;93944.00;;;19.80
41593;BMP180;28026;48.562;14.440;2023-03-01T13:24:40;93944.00;;;19.80
41593;BMP180;28026;48.562;14.440;2023-03-01T13:29:51;93965.00;;;19.60
41593;BMP180;28026;48.562;14.440;2023-03-01T13:32:37;93956.00;;;19.50
41593;BMP180;28026;48.562;14.440;2023-03-01T13:37:45;93959.00;;;19.40
41593;BMP180;28026;48.562;14.440;2023-03-01T13:42:53;93978.00;;;19.30
41593;BMP180;28026;48.562;14.440;2023-03-01T13:45:39;93984.00;;;19.40
41593;BMP180;28026;48.562;14.440;2023-03-01T13:48:22;93981.00;;;19.30
41593;BMP180;28026;48.562;14.440;2023-03-01T13:51:05;93986.00;;;19.30
41593;BMP180;28026;48.562;14.440;2023-03-01T13:53:44;93983.00;;;19.30
41593;BMP180;28026;48.562;14.440;2023-03-01T13:56:33;93978.00;;;19.30
41593;BMP180;28026;48.562;14.440;2023-03-01T13:59:21;93984.00;;;19.30
41593;BMP180;28026;48.562;14.440;2023-03-01T14:02:01;93981.00;;;19.20
41593;BMP180;28026;48.562;14.440;2023-03-01T14:04:33;93980.00;;;19.20
41593;BMP180;28026;48.562;14.440;2023-03-01T14:07:23;93978.00;;;19.10
41593;BMP180;28026;48.562;14.440;2023-03-01T14:10:04;93978.00;;;19.00
41593;BMP180;28026;48.562;14.440;2023-03-01T14:13:05;93979.00;;;19.10
41593;BMP180;28026;48.562;14.440;2023-03-01T14:16:16;93979.00;;;19.10
41593;BMP180;28026;48.562;14.440;2023-03-01T14:19:21;93984.00;;;19.10
41593;BMP180;28026;48.562;14.440;2023-03-01T14:22:22;93985.00;;;19.00
41593;BMP180;28026;48.562;14.440;2023-03-01T14:25:00;93995.00;;;18.70
41593;BMP180;28026;48.562;14.440;2023-03-01T14:27:38;93999.00;;;18.70
41593;BMP180;28026;48.562;14.440;2023-03-01T14:30:22;93993.00;;;18.60
41593;BMP180;28026;48.562;14.440;2023-03-01T14:33:02;93980.00;;;18.40
41593;BMP180;28026;48.562;14.440;2023-03-01T14:35:36;93970.00;;;18.30
41593;BMP180;28026;48.562;14.440;2023-03-01T14:38:22;93975.00;;;18.30
41593;BMP180;28026;48.562;14.440;2023-03-01T14:41:07;93974.00;;;18.40
41593;BMP180;28026;48.562;14.440;2023-03-01T14:43:49;93961.00;;;18.40
41593;BMP180;28026;48.562;14.440;2023-03-01T14:46:35;93965.00;;;18.30
41593;BMP180;28026;48.562;14.440;2023-03-01T14:49:23;93963.00;;;18.20
41593;BMP180;28026;48.562;14.440;2023-03-01T14:52:07;93970.00;;;18.20
41593;BMP180;28026;48.562;14.440;2023-03-01T14:54:56;93965.00;;;18.20
41593;BMP180;28026;48.562;14.440;2023-03-01T14:57:27;93969.00;;;18.10
41593;BMP180;28026;48.562;14.440;2023-03-01T15:00:01;93969.00;;;18.10
41593;BMP180;28026;48.562;14.440;2023-03-01T15:02:37;93967.00;;;18.10
41593;BMP180;28026;48.562;14.440;2023-03-01T15:05:10;93958.00;;;18.00
41593;BMP180;28026;48.562;14.440;2023-03-01T15:07:45;93956.00;;;18.00
41593;BMP180;28026;48.562;14.440;2023-03-01T15:10:27;93952.00;;;18.00
41593;BMP180;28026;48.562;14.440;2023-03-01T15:13:23;93945.00;;;17.80
41593;BMP180;28026;48.562;14.440;2023-03-01T15:16:32;93947.00;;;17.50
41593;BMP180;28026;48.562;14.440;2023-03-01T15:19:06;93944.00;;;17.30
41593;BMP180;28026;48.562;14.440;2023-03-01T15:21:38;93945.00;;;17.10
41593;BMP180;28026;48.562;14.440;2023-03-01T15:26:59;93937.00;;;16.90
41593;BMP180;28026;48.562;14.440;2023-03-01T15:29:37;93942.00;;;16.70
41593;BMP180;28026;48.562;14.440;2023-03-01T15:35:43;93937.00;;;16.40
41593;BMP180;28026;48.562;14.440;2023-03-01T15:38:35;93941.00;;;16.30
41593;BMP180;28026;48.562;14.440;2023-03-01T15:41:27;93951.00;;;16.30
41593;BMP180;28026;48.562;14.440;2023-03-01T15:44:29;93944.00;;;16.10
41593;BMP180;28026;48.562;14.440;2023-03-01T15:47:29;93950.00;;;15.80
41593;BMP180;28026;48.562;14.440;2023-03-01T15:50:01;93963.00;;;15.60
41593;BMP180;28026;48.562;14.440;2023-03-01T15:52:41;93954.00;;;15.50
41593;BMP180;28026;48.562;14.440;2023-03-01T15:55:25;93962.00;;;15.30
41593;BMP180;28026;48.562;14.440;2023-03-01T15:58:04;93955.00;;;15.10
41593;BMP180;28026;48.562;14.440;2023-03-01T16:00:40;93957.00;;;14.90
41593;BMP180;28026;48.562;14.440;2023-03-01T16:03:12;93963.00;;;14.70
41593;BMP180;28026;48.562;14.440;2023-03-01T16:05:43;93969.00;;;14.40
41593;BMP180;28026;48.562;14.440;2023-03-01T16:08:15;93963.00;;;14.20
41593;BMP180;28026;48.562;14.440;2023-03-01T16:10:47;93966.00;;;14.00
41593;BMP180;28026;48.562;14.440;2023-03-01T16:13:20;93959.00;;;13.80
41593;BMP180;28026;48.562;14.440;2023-03-01T16:15:51;93972.00;;;13.60
41593;BMP180;28026;48.562;14.440;2023-03-01T16:18:22;93974.00;;;13.40
41593;BMP180;28026;48.562;14.440;2023-03-01T16:20:53;93985.00;;;13.20
41593;BMP180;28026;48.562;14.440;2023-03-01T16:23:24;93988.00;;;13.10
41593;BMP180;28026;48.562;14.440;2023-03-01T16:25:59;93990.00;;;13.00
41593;BMP180;28026;48.562;14.440;2023-03-01T16:28:31;93984.00;;;12.90
41593;BMP180;28026;48.562;14.440;2023-03-01T16:31:02;93990.00;;;12.70